Time;durP1;ratioP1;P1;durP2;ratioP2;P2;SDS_P1;SDS_P2;PMS_P1;PMS_P2;Temp;Humidity;BMP_temperature;BMP_pressure;BME280_temperature;BME280_humidity;BME280_pressure;Samples;Min_cycle;Max_cycle;Signal;HPM_P1;HPM_P2
2022/09/11 00:01:21;;;;;;;1.02;0.60;;;26.20;50.00;;;;;;5052340;28;20526;-64
2022/09/11 00:03:47;;;;;;;1.00;0.50;;;26.20;50.10;;;;;;5052557;28;20025;-64
2022/09/11 00:06:19;;;;;;;0.90;0.50;;;26.20;50.00;;;;;;5052683;28;20103;-64
2022/09/11 00:08:47;;;;;;;0.75;0.50;;;26.10;50.00;;;;;;5051547;28;20498;-64
2022/09/11 00:11:16;;;;;;;1.00;0.50;;;26.10;50.00;;;;;;5052589;28;20052;-64
2022/09/11 00:13:44;;;;;;;0.88;0.50;;;26.10;50.00;;;;;;5051708;28;20072;-64
2022/09/11 00:16:25;;;;;;;0.75;0.50;;;26.10;50.00;;;;;;5052497;28;20107;-64
2022/09/11 00:18:52;;;;;;;0.93;0.40;;;26.10;50.00;;;;;;5052608;28;20029;-64
2022/09/11 00:21:19;;;;;;;0.50;0.43;;;26.10;50.00;;;;;;5052562;28;20039;-64
2022/09/11 00:23:47;;;;;;;0.75;0.50;;;26.00;50.00;;;;;;5052265;28;20033;-64
2022/09/11 00:26:13;;;;;;;1.02;0.60;;;26.00;50.00;;;;;;5051764;28;20017;-64
2022/09/11 00:28:39;;;;;;;1.08;0.60;;;26.00;50.00;;;;;;5034214;28;20033;-63
2022/09/11 00:31:08;;;;;;;1.27;0.40;;;26.00;50.00;;;;;;5051798;28;20040;-64
2022/09/11 00:33:34;;;;;;;1.20;0.50;;;26.00;50.00;;;;;;5052262;28;20029;-64
2022/09/11 00:36:06;;;;;;;0.50;0.40;;;26.00;50.00;;;;;;5052097;28;20021;-64
2022/09/11 00:38:34;;;;;;;1.02;0.50;;;25.90;50.00;;;;;;5052124;28;20048;-64
2022/09/11 00:41:03;;;;;;;0.50;0.50;;;25.90;50.00;;;;;;5052050;28;20017;-64
2022/09/11 00:43:48;;;;;;;0.30;0.30;;;25.90;50.00;;;;;;5051090;28;20041;-64
2022/09/11 00:46:15;;;;;;;0.60;0.40;;;25.90;50.00;;;;;;5051705;28;20560;-64
2022/09/11 00:48:42;;;;;;;0.60;0.47;;;25.90;50.00;;;;;;5050878;28;20032;-64
2022/09/11 00:51:09;;;;;;;0.73;0.47;;;25.90;50.10;;;;;;5051870;28;20021;-64
2022/09/11 00:53:36;;;;;;;0.50;0.50;;;25.80;50.00;;;;;;5051990;28;20357;-64
2022/09/11 00:56:06;;;;;;;1.00;0.50;;;25.80;50.00;;;;;;5051375;28;20099;-64
2022/09/11 00:58:36;;;;;;;0.40;0.40;;;25.80;50.00;;;;;;5051771;28;20037;-64
2022/09/11 01:01:03;;;;;;;0.60;0.50;;;25.80;50.00;;;;;;5051209;28;20087;-64
2022/09/11 01:03:30;;;;;;;0.63;0.40;;;25.80;50.10;;;;;;5048218;28;20116;-63
2022/09/11 01:05:58;;;;;;;0.60;0.50;;;25.80;50.10;;;;;;5051676;28;20491;-64
2022/09/11 01:08:24;;;;;;;1.85;0.60;;;25.80;50.10;;;;;;5051563;28;20116;-64
2022/09/11 01:11:05;;;;;;;0.60;0.50;;;25.80;50.10;;;;;;5050978;28;20107;-63
2022/09/11 01:13:37;;;;;;;0.60;0.30;;;25.70;50.10;;;;;;5049656;28;20027;-64
2022/09/11 01:16:21;;;;;;;0.55;0.40;;;25.70;50.10;;;;;;5051373;28;20029;-63
2022/09/11 01:18:56;;;;;;;1.75;0.40;;;25.70;50.10;;;;;;5050886;28;20021;-64
2022/09/11 01:21:24;;;;;;;0.93;0.80;;;25.70;50.20;;;;;;5051017;28;20113;-63
2022/09/11 01:24:08;;;;;;;0.90;0.53;;;25.70;50.20;;;;;;5051205;28;20032;-64
2022/09/11 01:26:55;;;;;;;0.52;0.40;;;25.70;50.20;;;;;;5050956;28;20492;-64
2022/09/11 01:29:27;;;;;;;0.80;0.50;;;25.60;50.20;;;;;;5051232;28;20032;-63
2022/09/11 01:32:10;;;;;;;1.15;0.60;;;25.60;50.20;;;;;;5035593;28;20025;-64
2022/09/11 01:34:59;;;;;;;0.65;0.50;;;25.60;50.20;;;;;;5031051;28;20078;-64
2022/09/11 01:37:38;;;;;;;0.68;0.40;;;25.60;50.20;;;;;;5031017;28;20547;-62
2022/09/11 01:40:21;;;;;;;0.40;0.40;;;25.60;50.30;;;;;;5030384;28;20033;-64
2022/09/11 01:42:51;;;;;;;0.43;0.40;;;25.50;50.30;;;;;;5031043;28;20025;-63
2022/09/11 01:45:18;;;;;;;0.73;0.47;;;25.50;50.20;;;;;;5031011;28;20744;-64
2022/09/11 01:47:48;;;;;;;0.63;0.40;;;25.50;50.20;;;;;;5030914;28;20055;-63
2022/09/11 01:50:16;;;;;;;0.65;0.50;;;25.50;50.30;;;;;;5030389;28;20056;-63
2022/09/11 01:52:54;;;;;;;0.85;0.50;;;25.50;50.30;;;;;;5030991;28;20515;-63
2022/09/11 01:55:35;;;;;;;0.90;0.50;;;25.50;50.30;;;;;;5030368;28;20025;-63
2022/09/11 01:58:05;;;;;;;1.20;0.60;;;25.50;50.30;;;;;;5030857;28;20037;-64
2022/09/11 02:00:34;;;;;;;1.23;0.50;;;25.50;50.40;;;;;;5030337;28;20030;-63
2022/09/11 02:03:10;;;;;;;0.88;0.40;;;25.50;50.40;;;;;;5030727;28;20403;-64
2022/09/11 02:05:48;;;;;;;0.60;0.50;;;25.40;50.40;;;;;;5029940;28;20465;-63
2022/09/11 02:08:25;;;;;;;0.80;0.50;;;25.40;50.40;;;;;;5030337;28;20117;-63
2022/09/11 02:11:04;;;;;;;0.40;0.40;;;25.40;50.40;;;;;;5030706;28;20028;-63
2022/09/11 02:13:47;;;;;;;0.57;0.40;;;25.40;50.50;;;;;;5029372;28;20109;-64
2022/09/11 02:16:21;;;;;;;0.45;0.38;;;25.40;50.60;;;;;;5028879;28;20021;-64
2022/09/11 02:19:01;;;;;;;1.55;0.40;;;25.40;50.60;;;;;;5004122;28;20480;-64
2022/09/11 02:21:27;;;;;;;0.52;0.40;;;25.30;50.50;;;;;;5004550;28;20522;-64
2022/09/11 02:23:54;;;;;;;0.57;0.40;;;25.30;50.50;;;;;;5034518;28;20430;-64
2022/09/11 02:26:23;;;;;;;0.60;0.43;;;25.30;50.60;;;;;;5034381;28;20029;-64
2022/09/11 02:28:49;;;;;;;0.45;0.30;;;25.30;50.60;;;;;;5034622;28;20026;-64
2022/09/11 02:31:19;;;;;;;0.60;0.35;;;25.30;50.60;;;;;;5034013;28;20892;-64
2022/09/11 02:33:46;;;;;;;0.30;0.30;;;25.30;50.60;;;;;;5034013;28;20109;-64
2022/09/11 02:36:30;;;;;;;0.75;0.45;;;25.30;50.60;;;;;;5034344;28;20503;-64
2022/09/11 02:39:27;;;;;;;0.50;0.40;;;25.30;50.60;;;;;;5034060;28;20485;-64
2022/09/11 02:42:31;;;;;;;0.60;0.50;;;25.20;50.60;;;;;;5032260;28;20116;-64
2022/09/11 02:45:14;;;;;;;0.30;0.30;;;25.20;50.60;;;;;;5034077;28;20025;-64
2022/09/11 02:47:45;;;;;;;0.38;0.30;;;25.20;50.70;;;;;;5033976;28;20037;-64
2022/09/11 02:50:29;;;;;;;1.13;0.40;;;25.20;50.70;;;;;;5033849;28;20026;-64
2022/09/11 02:53:11;;;;;;;0.43;0.40;;;25.10;50.70;;;;;;5034151;28;20052;-64
2022/09/11 02:55:40;;;;;;;0.40;0.30;;;25.10;50.70;;;;;;5033692;28;20037;-64
2022/09/11 02:58:29;;;;;;;0.60;0.40;;;25.10;50.70;;;;;;5034077;28;20032;-64
2022/09/11 03:00:59;;;;;;;0.30;0.30;;;25.10;50.70;;;;;;5033544;28;20457;-64
2022/09/11 03:03:24;;;;;;;0.45;0.40;;;25.10;50.80;;;;;;5033945;28;20425;-64
2022/09/11 03:05:50;;;;;;;0.35;0.28;;;25.10;50.80;;;;;;5033893;28;20057;-64
2022/09/11 03:08:16;;;;;;;0.82;0.40;;;25.10;50.80;;;;;;5033917;28;20022;-64
2022/09/11 03:10:45;;;;;;;0.40;0.30;;;25.10;50.90;;;;;;5033830;28;20030;-64
2022/09/11 03:13:13;;;;;;;0.32;0.32;;;25.10;50.90;;;;;;5033826;28;20033;-64
2022/09/11 03:15:39;;;;;;;0.68;0.40;;;25.00;50.80;;;;;;5032533;28;20041;-64
2022/09/11 03:18:05;;;;;;;0.65;0.35;;;25.00;50.90;;;;;;5032516;28;20205;-64
2022/09/11 03:20:30;;;;;;;0.35;0.30;;;25.00;50.90;;;;;;5032383;28;20036;-64
2022/09/11 03:22:56;;;;;;;0.95;0.40;;;25.00;50.90;;;;;;5032458;28;20029;-64
2022/09/11 03:25:27;;;;;;;0.88;0.50;;;25.00;50.90;;;;;;5032277;28;20026;-64
2022/09/11 03:27:53;;;;;;;0.30;0.30;;;25.00;50.90;;;;;;5032350;28;20026;-64
2022/09/11 03:30:19;;;;;;;0.40;0.30;;;25.00;50.90;;;;;;5031834;28;20032;-64
2022/09/11 03:32:45;;;;;;;0.65;0.30;;;25.00;50.90;;;;;;5030746;28;20144;-64
2022/09/11 03:35:11;;;;;;;0.60;0.30;;;25.00;50.90;;;;;;5032285;28;20132;-64
2022/09/11 03:37:36;;;;;;;0.32;0.30;;;25.00;51.50;;;;;;5032305;28;20120;-64
2022/09/11 03:40:03;;;;;;;0.30;0.30;;;24.90;50.90;;;;;;5032144;28;20033;-64
2022/09/11 03:42:28;;;;;;;0.30;0.30;;;24.90;51.00;;;;;;5031063;28;20109;-64
2022/09/11 03:44:54;;;;;;;0.30;0.30;;;24.90;51.00;;;;;;5032079;28;20548;-64
2022/09/11 03:47:21;;;;;;;0.30;0.30;;;24.90;51.00;;;;;;5032018;28;20543;-64
2022/09/11 03:49:47;;;;;;;0.40;0.30;;;24.90;51.10;;;;;;5032062;28;20021;-64
2022/09/11 03:52:12;;;;;;;0.40;0.35;;;24.90;51.00;;;;;;5032037;28;20139;-64
2022/09/11 03:54:38;;;;;;;0.30;0.30;;;24.90;51.00;;;;;;5031968;28;20485;-64
2022/09/11 03:57:05;;;;;;;0.40;0.40;;;24.90;51.10;;;;;;5031855;28;20060;-63
2022/09/11 03:59:31;;;;;;;0.30;0.30;;;24.80;51.00;;;;;;5031939;28;20175;-64
2022/09/11 04:01:57;;;;;;;0.30;0.30;;;24.80;51.00;;;;;;5031339;28;20544;-64
2022/09/11 04:04:23;;;;;;;0.40;0.40;;;24.80;51.10;;;;;;5031741;28;20026;-63
2022/09/11 04:06:48;;;;;;;0.45;0.40;;;24.80;51.60;;;;;;5031696;28;20060;-64
2022/09/11 04:09:14;;;;;;;0.30;0.30;;;24.80;51.10;;;;;;5031638;28;20049;-63
2022/09/11 04:11:40;;;;;;;0.30;0.30;;;24.80;51.10;;;;;;5031712;28;20057;-63
2022/09/11 04:14:06;;;;;;;0.30;0.30;;;24.80;51.10;;;;;;4989901;28;1208103;-64
2022/09/11 04:16:32;;;;;;;0.30;0.30;;;24.80;51.10;;;;;;5031925;28;20342;-63
2022/09/11 04:19:00;;;;;;;0.30;0.30;;;24.80;51.20;;;;;;5032505;28;20040;-63
2022/09/11 04:21:26;;;;;;;0.47;0.40;;;24.80;51.20;;;;;;5032103;28;20025;-63
2022/09/11 04:23:54;;;;;;;0.40;0.30;;;24.80;51.10;;;;;;5032353;28;20358;-64
2022/09/11 04:26:22;;;;;;;0.50;0.40;;;24.80;51.10;;;;;;5032478;28;20045;-64
2022/09/11 04:28:48;;;;;;;0.30;0.30;;;24.80;51.20;;;;;;5031021;28;20029;-63
2022/09/11 04:31:16;;;;;;;0.40;0.40;;;24.80;51.20;;;;;;5014050;28;20477;-63
2022/09/11 04:33:42;;;;;;;0.57;0.40;;;24.80;51.20;;;;;;5031902;28;20026;-63
2022/09/11 04:36:11;;;;;;;0.32;0.32;;;24.70;51.10;;;;;;5032234;28;20033;-63
2022/09/11 04:38:40;;;;;;;0.85;0.50;;;24.80;51.20;;;;;;5032299;28;20388;-64
2022/09/11 04:41:06;;;;;;;0.40;0.40;;;24.70;51.10;;;;;;5032171;28;20469;-64
2022/09/11 04:43:37;;;;;;;0.40;0.40;;;24.80;51.20;;;;;;5031458;28;20572;-65
2022/09/11 04:46:05;;;;;;;0.30;0.30;;;24.70;51.20;;;;;;5031528;28;20427;-63
2022/09/11 04:48:30;;;;;;;0.45;0.40;;;24.70;51.70;;;;;;5031932;28;20034;-64
2022/09/11 04:51:02;;;;;;;0.50;0.50;;;24.70;51.20;;;;;;5031959;28;20040;-63
2022/09/11 04:53:27;;;;;;;0.68;0.40;;;24.70;51.20;;;;;;5031334;28;20026;-63
2022/09/11 04:56:01;;;;;;;0.30;0.30;;;24.70;51.20;;;;;;5031762;28;20037;-63
2022/09/11 04:58:28;;;;;;;0.88;0.40;;;24.70;51.20;;;;;;5031709;28;20025;-63
2022/09/11 05:00:53;;;;;;;0.30;0.30;;;24.70;51.20;;;;;;5031297;28;20025;-64
2022/09/11 05:03:19;;;;;;;0.50;0.30;;;24.60;51.20;;;;;;5031574;28;20087;-64
2022/09/11 05:05:45;;;;;;;0.28;0.25;;;24.70;51.30;;;;;;5031620;28;20029;-64
2022/09/11 05:08:11;;;;;;;0.30;0.30;;;24.70;51.20;;;;;;5031097;28;20116;-64
2022/09/11 05:10:37;;;;;;;0.63;0.30;;;24.60;51.20;;;;;;5031676;28;20120;-64
2022/09/11 05:13:03;;;;;;;0.40;0.30;;;24.60;51.20;;;;;;5031601;28;20112;-63
2022/09/11 05:15:30;;;;;;;0.20;0.20;;;24.70;51.30;;;;;;5013567;28;20469;-63
2022/09/11 05:17:56;;;;;;;0.47;0.30;;;24.60;51.20;;;;;;5031481;28;20029;-64
2022/09/11 05:20:22;;;;;;;0.50;0.40;;;24.60;51.20;;;;;;5030207;28;20469;-63
2022/09/11 05:22:49;;;;;;;0.30;0.30;;;24.60;51.20;;;;;;5031364;28;20033;-63
2022/09/11 05:25:16;;;;;;;0.40;0.40;;;24.60;51.30;;;;;;5031355;28;20091;-63
2022/09/11 05:27:41;;;;;;;0.38;0.30;;;24.60;51.30;;;;;;5031356;28;20017;-63
2022/09/11 05:30:07;;;;;;;0.30;0.30;;;24.60;51.30;;;;;;5030521;28;20029;-64
2022/09/11 05:32:33;;;;;;;0.30;0.30;;;24.60;51.30;;;;;;5031288;28;20025;-63
2022/09/11 05:34:58;;;;;;;0.40;0.35;;;24.60;51.30;;;;;;5031173;28;20033;-63
2022/09/11 05:37:24;;;;;;;0.40;0.40;;;24.60;51.30;;;;;;5031118;28;20116;-64
2022/09/11 05:39:50;;;;;;;0.30;0.30;;;24.60;51.30;;;;;;5031039;28;20037;-64
2022/09/11 05:42:16;;;;;;;0.30;0.30;;;24.60;51.30;;;;;;5031114;28;20555;-64
2022/09/11 05:44:42;;;;;;;0.38;0.38;;;24.60;51.30;;;;;;5030855;28;20040;-64
2022/09/11 05:47:08;;;;;;;0.32;0.32;;;24.50;51.20;;;;;;5031141;28;20033;-64
2022/09/11 05:49:34;;;;;;;0.52;0.40;;;24.50;51.20;;;;;;5030863;28;20042;-64
2022/09/11 05:52:00;;;;;;;0.57;0.40;;;24.50;51.30;;;;;;5030812;28;20477;-63
2022/09/11 05:54:26;;;;;;;0.30;0.30;;;24.50;51.30;;;;;;5030835;28;20485;-64
2022/09/11 05:56:51;;;;;;;0.30;0.30;;;24.60;51.30;;;;;;5030711;28;20018;-63
2022/09/11 05:59:19;;;;;;;0.65;0.40;;;24.60;51.40;;;;;;5030716;28;20033;-63
2022/09/11 06:01:46;;;;;;;0.60;0.35;;;24.50;51.30;;;;;;5030324;28;20033;-63
2022/09/11 06:04:13;;;;;;;0.50;0.45;;;24.50;51.20;;;;;;5029013;28;20025;-63
2022/09/11 06:06:39;;;;;;;0.30;0.30;;;24.50;51.20;;;;;;5030850;28;20026;-63
2022/09/11 06:09:06;;;;;;;0.30;0.30;;;24.60;51.30;;;;;;5030796;28;20532;-64
2022/09/11 06:11:32;;;;;;;0.30;0.30;;;24.50;51.80;;;;;;5029706;28;20026;-64
2022/09/11 06:13:58;;;;;;;0.30;0.30;;;24.60;51.30;;;;;;5030515;28;20045;-64
2022/09/11 06:16:25;;;;;;;0.35;0.35;;;24.50;51.30;;;;;;5030736;28;20459;-64
2022/09/11 06:18:53;;;;;;;0.30;0.30;;;24.50;51.30;;;;;;5030714;28;20029;-64
2022/09/11 06:21:22;;;;;;;0.73;0.40;;;24.50;51.30;;;;;;5030687;28;20104;-64
2022/09/11 06:23:49;;;;;;;0.52;0.30;;;24.50;51.30;;;;;;5030560;28;20018;-64
2022/09/11 06:26:16;;;;;;;0.30;0.30;;;24.50;51.30;;;;;;5030650;28;20512;-64
2022/09/11 06:28:42;;;;;;;0.35;0.35;;;24.50;51.30;;;;;;5030521;28;20512;-64
2022/09/11 06:31:15;;;;;;;0.30;0.30;;;24.50;51.30;;;;;;5030124;28;20116;-64
2022/09/11 06:33:41;;;;;;;0.40;0.40;;;24.40;51.30;;;;;;5030339;28;20690;-64
2022/09/11 06:36:10;;;;;;;0.50;0.40;;;24.50;51.30;;;;;;5030483;28;20047;-64
2022/09/11 06:38:37;;;;;;;0.40;0.40;;;24.50;51.30;;;;;;5029648;28;20425;-64
2022/09/11 06:41:11;;;;;;;0.20;0.20;;;24.50;51.30;;;;;;5028727;28;20045;-64
2022/09/11 06:43:37;;;;;;;0.40;0.40;;;24.40;51.30;;;;;;5030307;28;20026;-64
2022/09/11 06:46:13;;;;;;;0.85;0.65;;;24.50;51.30;;;;;;5029669;28;20083;-64
2022/09/11 06:48:41;;;;;;;0.38;0.38;;;24.40;51.20;;;;;;5029804;28;20485;-64
2022/09/11 06:51:10;;;;;;;0.43;0.40;;;24.40;51.30;;;;;;5030303;28;20094;-64
2022/09/11 06:53:36;;;;;;;0.30;0.30;;;24.40;51.30;;;;;;5030034;28;20428;-64
2022/09/11 06:56:03;;;;;;;0.38;0.30;;;24.40;51.30;;;;;;5030174;28;20029;-64
2022/09/11 06:58:29;;;;;;;0.40;0.40;;;24.40;51.30;;;;;;5030209;28;20496;-64
2022/09/11 07:01:00;;;;;;;0.40;0.30;;;24.40;51.30;;;;;;5011843;28;20079;-64
2022/09/11 07:03:26;;;;;;;0.40;0.40;;;24.40;51.20;;;;;;5029850;28;20119;-64
2022/09/11 07:05:51;;;;;;;0.40;0.40;;;24.40;51.20;;;;;;5030235;28;20064;-64
2022/09/11 07:08:17;;;;;;;0.57;0.47;;;24.40;51.30;;;;;;5031750;28;20037;-64
2022/09/11 07:10:43;;;;;;;0.57;0.40;;;24.40;51.20;;;;;;5033941;28;20108;-64
2022/09/11 07:13:08;;;;;;;1.15;0.50;;;24.40;51.20;;;;;;5033320;28;20205;-64
2022/09/11 07:15:34;;;;;;;0.50;0.50;;;24.40;51.20;;;;;;5008022;28;20041;-64
2022/09/11 07:18:00;;;;;;;0.70;0.30;;;24.40;51.20;;;;;;5033707;28;20030;-64
2022/09/11 07:20:27;;;;;;;0.88;0.40;;;24.40;51.20;;;;;;5033687;28;20032;-64
2022/09/11 07:22:52;;;;;;;0.35;0.30;;;24.40;51.20;;;;;;5033730;28;20079;-64
2022/09/11 07:25:18;;;;;;;0.40;0.40;;;24.40;51.20;;;;;;5033662;28;20041;-64
2022/09/11 07:27:43;;;;;;;0.30;0.30;;;24.40;51.20;;;;;;5033490;28;20026;-63
2022/09/11 07:30:10;;;;;;;0.38;0.38;;;24.40;51.20;;;;;;5033078;28;20029;-63
2022/09/11 07:32:36;;;;;;;0.30;0.30;;;24.40;51.20;;;;;;5033492;28;20025;-64
2022/09/11 07:35:03;;;;;;;0.35;0.30;;;24.40;51.20;;;;;;5033364;28;20107;-64
2022/09/11 07:37:28;;;;;;;0.30;0.30;;;24.40;51.20;;;;;;5015615;28;20033;-64
2022/09/11 07:39:54;;;;;;;0.35;0.30;;;24.30;51.20;;;;;;5033158;28;20501;-64
2022/09/11 07:42:20;;;;;;;0.40;0.40;;;24.40;51.40;;;;;;5033237;28;20561;-64
2022/09/11 07:44:45;;;;;;;0.50;0.50;;;24.40;51.30;;;;;;5033088;28;20103;-63
2022/09/11 07:47:11;;;;;;;0.40;0.40;;;24.30;51.20;;;;;;5032983;28;20040;-64
2022/09/11 07:49:36;;;;;;;0.30;0.30;;;24.40;51.30;;;;;;5033121;28;20029;-64
2022/09/11 07:52:02;;;;;;;0.65;0.50;;;24.30;51.30;;;;;;5033039;28;20534;-64
2022/09/11 07:54:29;;;;;;;0.30;0.30;;;24.30;51.30;;;;;;5032890;28;20528;-64
2022/09/11 07:56:55;;;;;;;0.40;0.40;;;24.30;51.30;;;;;;5033017;28;20026;-64
2022/09/11 07:59:21;;;;;;;0.30;0.30;;;24.30;51.30;;;;;;5032894;28;20048;-64
2022/09/11 08:01:49;;;;;;;0.40;0.40;;;24.30;51.30;;;;;;5030126;28;20508;-64
2022/09/11 08:04:14;;;;;;;0.30;0.30;;;24.30;51.30;;;;;;5032755;28;20025;-64
2022/09/11 08:06:41;;;;;;;0.40;0.40;;;24.30;51.30;;;;;;5032728;28;20526;-64
2022/09/11 08:09:13;;;;;;;0.50;0.50;;;24.30;51.30;;;;;;5032654;28;20079;-64
2022/09/11 08:11:42;;;;;;;0.70;0.50;;;24.30;51.40;;;;;;5032743;28;20021;-64
2022/09/11 08:14:10;;;;;;;0.68;0.50;;;24.30;51.40;;;;;;5032528;28;20192;-64
2022/09/11 08:16:36;;;;;;;0.30;0.30;;;24.30;51.40;;;;;;5032587;28;20029;-64
2022/09/11 08:19:02;;;;;;;0.30;0.30;;;24.30;51.40;;;;;;5031286;28;20079;-64
2022/09/11 08:21:28;;;;;;;0.40;0.40;;;24.30;51.40;;;;;;5032478;28;20037;-64
2022/09/11 08:23:54;;;;;;;0.60;0.45;;;24.30;51.40;;;;;;5032484;28;20477;-64
2022/09/11 08:26:25;;;;;;;0.40;0.40;;;24.30;51.40;;;;;;5032471;28;20037;-64
2022/09/11 08:28:53;;;;;;;1.17;0.45;;;24.30;51.50;;;;;;5031354;28;20461;-64
2022/09/11 08:31:21;;;;;;;0.63;0.40;;;24.30;51.50;;;;;;5031853;28;20037;-64
2022/09/11 08:33:48;;;;;;;0.43;0.43;;;24.30;51.50;;;;;;5032329;28;20018;-64
2022/09/11 08:36:14;;;;;;;0.52;0.50;;;24.30;51.50;;;;;;5031610;28;20516;-63
2022/09/11 08:38:41;;;;;;;0.50;0.50;;;24.30;51.60;;;;;;5032320;28;20481;-63
2022/09/11 08:41:22;;;;;;;0.60;0.40;;;24.30;51.60;;;;;;5032283;28;20024;-64
2022/09/11 08:43:53;;;;;;;0.45;0.40;;;24.30;51.70;;;;;;5031949;28;20026;-63
2022/09/11 08:46:24;;;;;;;0.40;0.40;;;24.30;51.60;;;;;;5031281;28;20464;-63
2022/09/11 08:48:58;;;;;;;0.52;0.50;;;24.30;51.70;;;;;;5031236;28;20104;-63
2022/09/11 08:51:27;;;;;;;0.52;0.50;;;24.30;51.70;;;;;;5030774;28;20041;-63
2022/09/11 08:53:55;;;;;;;0.47;0.47;;;24.30;51.70;;;;;;5031866;28;20128;-63
2022/09/11 08:56:23;;;;;;;0.57;0.55;;;24.30;51.80;;;;;;5031806;28;20821;-63
2022/09/11 08:59:26;;;;;;;0.43;0.40;;;24.30;51.80;;;;;;5031737;28;20074;-63
2022/09/11 09:02:09;;;;;;;0.60;0.50;;;24.30;51.80;;;;;;5031277;28;20029;-63
2022/09/11 09:05:00;;;;;;;1.10;0.50;;;24.30;51.90;;;;;;5031554;28;20075;-63
2022/09/11 09:07:49;;;;;;;0.80;0.60;;;24.30;51.90;;;;;;5030109;28;20105;-63
2022/09/11 09:10:27;;;;;;;0.73;0.60;;;24.20;51.90;;;;;;5030157;28;20087;-63
2022/09/11 09:13:22;;;;;;;0.98;0.60;;;24.30;52.00;;;;;;5031040;28;20049;-63
2022/09/11 09:16:15;;;;;;;0.60;0.55;;;24.30;52.00;;;;;;5031481;28;20068;-64
2022/09/11 09:18:49;;;;;;;0.55;0.50;;;24.30;52.00;;;;;;5030238;28;20021;-64
2022/09/11 09:21:27;;;;;;;1.00;0.60;;;24.20;52.10;;;;;;5031432;28;20038;-63
2022/09/11 09:23:57;;;;;;;1.33;0.70;;;24.20;52.10;;;;;;5030440;28;20107;-63
2022/09/11 09:26:32;;;;;;;1.67;0.68;;;24.30;52.20;;;;;;5030884;28;20388;-63
2022/09/11 09:29:01;;;;;;;1.15;0.70;;;24.30;52.30;;;;;;5031050;28;20036;-63
2022/09/11 09:31:29;;;;;;;0.85;0.60;;;24.20;52.30;;;;;;5029864;28;20025;-63
2022/09/11 09:34:02;;;;;;;0.93;0.60;;;24.20;52.50;;;;;;5030300;28;20034;-63
2022/09/11 09:36:32;;;;;;;1.58;0.80;;;24.20;52.40;;;;;;5029998;28;20041;-64
2022/09/11 09:38:58;;;;;;;;;;;24.30;52.50;;;;;;5030724;28;20025;-64
2022/09/11 09:41:48;;;;;;;1.85;0.80;;;24.20;52.50;;;;;;5030653;28;19916;-64
2022/09/11 09:44:21;;;;;;;1.25;0.70;;;24.20;52.60;;;;;;5030904;28;20048;-63
2022/09/11 09:46:49;;;;;;;1.33;0.70;;;24.20;52.60;;;;;;5031081;28;20049;-64
2022/09/11 09:49:26;;;;;;;0.68;0.60;;;24.20;52.70;;;;;;5030573;28;20503;-64
2022/09/11 09:51:55;;;;;;;1.52;0.80;;;24.20;52.70;;;;;;5030560;28;20540;-63
2022/09/11 09:54:25;;;;;;;1.98;0.65;;;24.20;52.60;;;;;;5030914;28;20076;-64
2022/09/11 09:57:01;;;;;;;1.33;0.80;;;24.30;52.60;;;;;;5030684;28;20108;-63
2022/09/11 09:59:42;;;;;;;0.95;0.70;;;24.20;52.70;;;;;;5030855;28;20547;-64
2022/09/11 10:02:07;;;;;;;1.17;0.75;;;24.20;52.60;;;;;;5029175;28;20117;-64
2022/09/11 10:04:33;;;;;;;1.73;0.70;;;24.20;52.70;;;;;;5028410;28;20124;-64
2022/09/11 10:07:06;;;;;;;1.50;0.80;;;24.20;52.60;;;;;;5030587;28;20469;-64
2022/09/11 10:09:32;;;;;;;1.15;0.52;;;24.20;52.60;;;;;;5029158;28;20028;-64
2022/09/11 10:12:04;;;;;;;1.35;0.77;;;24.20;52.60;;;;;;5011980;28;20557;-64
2022/09/11 10:14:33;;;;;;;0.60;0.60;;;24.20;52.50;;;;;;5028376;28;20061;-64
2022/09/11 10:17:01;;;;;;;2.05;0.70;;;24.20;52.50;;;;;;5029891;28;20102;-64
2022/09/11 10:19:54;;;;;;;1.20;0.63;;;24.30;52.60;;;;;;5030271;28;20078;-64
2022/09/11 10:22:27;;;;;;;0.93;0.63;;;24.20;52.50;;;;;;5026703;28;20500;-64
2022/09/11 10:25:25;;;;;;;0.90;0.60;;;24.20;52.50;;;;;;5029238;28;20029;-63
2022/09/11 10:28:12;;;;;;;1.55;0.80;;;24.20;52.50;;;;;;5021437;28;20358;-63
2022/09/11 10:30:58;;;;;;;0.85;0.75;;;24.20;52.60;;;;;;5029512;28;20056;-63
2022/09/11 10:33:31;;;;;;;0.60;0.60;;;24.20;52.50;;;;;;5011867;28;20025;-63
2022/09/11 10:35:59;;;;;;;1.67;0.80;;;24.20;52.50;;;;;;5029273;28;20083;-63
2022/09/11 10:38:36;;;;;;;0.50;0.50;;;24.20;52.50;;;;;;5011995;28;20051;-64
2022/09/11 10:41:14;;;;;;;1.20;0.60;;;24.20;52.50;;;;;;5029752;28;20053;-63
2022/09/11 10:43:43;;;;;;;1.20;0.80;;;24.20;52.50;;;;;;5008421;28;20033;-63
2022/09/11 10:46:17;;;;;;;0.80;0.70;;;24.20;52.50;;;;;;5034208;28;20033;-63
2022/09/11 10:48:50;;;;;;;1.08;0.70;;;24.20;52.50;;;;;;5034028;28;20101;-63
2022/09/11 10:51:16;;;;;;;1.02;0.70;;;24.20;52.40;;;;;;5034303;28;20025;-63
2022/09/11 10:54:02;;;;;;;0.88;0.70;;;24.20;52.40;;;;;;5034244;28;20044;-63
2022/09/11 10:56:28;;;;;;;1.27;0.80;;;24.20;52.40;;;;;;5034135;28;20481;-63
2022/09/11 10:59:01;;;;;;;1.00;0.70;;;24.20;52.50;;;;;;5034120;28;20025;-63
2022/09/11 11:01:27;;;;;;;1.05;0.80;;;24.20;52.40;;;;;;5033700;28;20056;-64
2022/09/11 11:03:55;;;;;;;0.85;0.70;;;24.20;52.40;;;;;;5034019;28;20022;-63
2022/09/11 11:06:38;;;;;;;0.85;0.70;;;24.20;52.50;;;;;;5034102;28;20033;-63
2022/09/11 11:09:27;;;;;;;0.60;0.60;;;24.20;52.50;;;;;;5033729;28;20472;-64
2022/09/11 11:12:17;;;;;;;1.73;0.80;;;24.20;52.60;;;;;;5034093;28;20366;-63
2022/09/11 11:15:20;;;;;;;0.70;0.63;;;24.20;52.60;;;;;;5033189;28;20099;-64
2022/09/11 11:18:13;;;;;;;0.60;0.55;;;24.20;52.70;;;;;;5015098;28;20481;-64
2022/09/11 11:21:02;;;;;;;1.13;0.68;;;24.20;52.60;;;;;;5032964;28;20516;-66
2022/09/11 11:23:35;;;;;;;;;;;24.20;52.60;;;;;;5033720;28;20498;-64
2022/09/11 11:26:26;;;;;;;0.70;0.70;;;24.20;52.60;;;;;;5032771;28;19955;-64
2022/09/11 11:29:10;;;;;;;0.88;0.70;;;24.20;52.60;;;;;;5032862;28;20518;-64
2022/09/11 11:31:36;;;;;;;0.88;0.70;;;24.20;52.50;;;;;;5031478;28;20033;-64
2022/09/11 11:34:28;;;;;;;0.93;0.70;;;24.20;52.60;;;;;;5033595;28;20033;-64
2022/09/11 11:37:01;;;;;;;0.90;0.68;;;24.20;52.70;;;;;;5032695;28;20116;-64
2022/09/11 11:39:28;;;;;;;0.85;0.60;;;24.20;52.70;;;;;;5033623;28;20040;-64
2022/09/11 11:42:11;;;;;;;1.02;0.73;;;24.20;52.60;;;;;;5033531;28;20117;-63
2022/09/11 11:44:41;;;;;;;1.73;0.60;;;24.20;52.70;;;;;;5033559;28;20078;-64
2022/09/11 11:47:09;;;;;;;1.20;0.80;;;24.30;52.60;;;;;;5031575;28;20413;-64
2022/09/11 11:49:49;;;;;;;0.90;0.70;;;24.20;52.50;;;;;;5033505;28;20385;-64
2022/09/11 11:52:30;;;;;;;1.88;0.75;;;24.20;52.60;;;;;;5032097;28;20389;-64
2022/09/11 11:55:05;;;;;;;0.80;0.70;;;24.20;52.60;;;;;;5032916;28;20144;-64
2022/09/11 11:57:39;;;;;;;0.60;0.60;;;24.30;52.60;;;;;;5033236;28;20083;-64
2022/09/11 12:00:14;;;;;;;1.08;0.70;;;24.20;52.50;;;;;;5032351;28;20026;-64
2022/09/11 12:02:48;;;;;;;0.68;0.65;;;24.30;52.60;;;;;;5052646;28;20128;-64
2022/09/11 12:05:16;;;;;;;0.90;0.60;;;24.30;52.50;;;;;;5051902;28;20059;-64
2022/09/11 12:07:42;;;;;;;0.68;0.60;;;24.20;52.40;;;;;;5052986;28;20021;-64
2022/09/11 12:10:25;;;;;;;0.70;0.65;;;24.30;52.40;;;;;;5052857;28;20495;-64
2022/09/11 12:12:59;;;;;;;0.75;0.75;;;24.20;52.30;;;;;;5052323;28;20040;-65
2022/09/11 12:15:29;;;;;;;0.77;0.65;;;24.20;52.30;;;;;;5052245;28;20068;-64
2022/09/11 12:18:04;;;;;;;0.60;0.50;;;24.30;52.30;;;;;;5052754;28;20365;-63
2022/09/11 12:20:41;;;;;;;1.33;0.70;;;24.30;52.30;;;;;;5052049;28;20028;-64
2022/09/11 12:23:29;;;;;;;1.10;0.70;;;24.30;52.30;;;;;;5051626;28;20363;-63
2022/09/11 12:26:09;;;;;;;0.70;0.63;;;24.30;52.20;;;;;;5052353;28;20029;-63
2022/09/11 12:28:36;;;;;;;0.70;0.68;;;24.30;52.30;;;;;;5050742;28;20091;-64
2022/09/11 12:31:07;;;;;;;0.80;0.70;;;24.30;52.30;;;;;;5051756;28;20492;-64
2022/09/11 12:33:42;;;;;;;1.23;0.77;;;24.30;52.80;;;;;;5051278;28;20464;-63
2022/09/11 12:36:23;;;;;;;0.70;0.70;;;24.30;52.20;;;;;;5051881;28;20104;-64
2022/09/11 12:38:59;;;;;;;1.88;0.60;;;24.30;52.30;;;;;;5051140;28;20029;-63
2022/09/11 12:41:29;;;;;;;0.70;0.60;;;24.30;52.30;;;;;;5051157;28;20114;-63
2022/09/11 12:43:55;;;;;;;0.80;0.70;;;24.30;52.40;;;;;;5050635;28;20029;-62
2022/09/11 12:46:21;;;;;;;1.45;0.63;;;24.30;52.40;;;;;;5051421;28;20072;-63
2022/09/11 12:48:48;;;;;;;0.70;0.60;;;24.30;52.50;;;;;;5051815;28;20028;-62
2022/09/11 12:51:34;;;;;;;0.75;0.70;;;24.30;52.50;;;;;;5049858;28;20481;-62
2022/09/11 12:54:03;;;;;;;1.23;0.70;;;24.30;52.50;;;;;;5051938;28;20821;-62
2022/09/11 12:56:34;;;;;;;0.70;0.60;;;24.30;52.50;;;;;;5041173;28;20021;-62
2022/09/11 12:59:08;;;;;;;1.77;0.80;;;24.30;52.50;;;;;;5051756;28;20178;-62
2022/09/11 13:01:52;;;;;;;1.10;0.65;;;24.30;52.50;;;;;;5050904;28;20025;-62
2022/09/11 13:04:23;;;;;;;1.40;0.70;;;24.30;52.50;;;;;;5051310;28;20021;-63
2022/09/11 13:06:56;;;;;;;1.27;0.70;;;24.30;52.40;;;;;;5050818;28;20032;-62
2022/09/11 13:09:26;;;;;;;2.05;0.70;;;24.30;52.40;;;;;;5051140;28;20468;-62